Time;durP1;ratioP1;P1;durP2;ratioP2;P2;SDS_P1;SDS_P2;PMS_P1;PMS_P2;Temp;Humidity;BMP_temperature;BMP_pressure;BME280_temperature;BME280_humidity;BME280_pressure;Samples;Min_cycle;Max_cycle;Signal;HPM_P1;HPM_P2
2023/02/25 00:00:29;;;;;;;18.52;2.60;;;4.40;99.90;;;;;;5015110;28;20073;-78
2023/02/25 00:02:51;;;;;;;19.73;2.83;;;4.40;99.90;;;;;;5028693;28;20056;-79
2023/02/25 00:05:17;;;;;;;17.38;3.13;;;4.40;99.90;;;;;;5031777;28;20041;-78
2023/02/25 00:07:44;;;;;;;14.82;2.67;;;4.40;99.90;;;;;;5032003;28;20044;-78
2023/02/25 00:10:12;;;;;;;21.42;2.70;;;4.40;99.90;;;;;;5033354;28;20049;-79
2023/02/25 00:12:39;;;;;;;22.23;3.05;;;4.40;99.90;;;;;;5012371;28;20036;-78
2023/02/25 00:15:05;;;;;;;13.93;2.50;;;4.40;99.90;;;;;;5044034;28;20401;-78
2023/02/25 00:17:32;;;;;;;16.55;3.28;;;4.40;99.90;;;;;;5028532;28;20512;-78
2023/02/25 00:19:58;;;;;;;17.42;3.05;;;4.40;99.90;;;;;;5014920;28;20041;-78
2023/02/25 00:22:24;;;;;;;25.23;2.78;;;4.40;99.90;;;;;;5031858;28;20041;-78
2023/02/25 00:24:56;;;;;;;21.85;3.15;;;4.40;99.90;;;;;;5031241;28;20469;-79
2023/02/25 00:27:23;;;;;;;13.23;2.60;;;4.30;99.90;;;;;;5030058;28;20516;-78
2023/02/25 00:29:52;;;;;;;15.07;2.95;;;4.30;99.90;;;;;;5031053;28;20056;-78
2023/02/25 00:32:18;;;;;;;17.52;2.83;;;4.30;99.90;;;;;;5030561;28;20454;-79
2023/02/25 00:34:45;;;;;;;11.80;2.80;;;4.30;99.90;;;;;;5017377;28;20034;-78
2023/02/25 00:37:10;;;;;;;18.70;3.00;;;4.30;99.90;;;;;;5034018;28;20049;-79
2023/02/25 00:39:42;;;;;;;16.50;2.50;;;4.30;99.90;;;;;;5031608;28;20101;-79
2023/02/25 00:42:13;;;;;;;15.85;2.70;;;4.30;99.90;;;;;;5051837;28;20508;-76
2023/02/25 00:44:41;;;;;;;20.20;3.70;;;4.30;99.90;;;;;;5051281;28;20017;-78
2023/02/25 00:47:07;;;;;;;17.23;2.88;;;4.30;99.90;;;;;;5042516;28;20052;-79
2023/02/25 00:49:32;;;;;;;15.00;2.67;;;4.30;99.90;;;;;;5036417;28;20033;-79
2023/02/25 00:51:59;;;;;;;19.83;3.17;;;4.30;99.90;;;;;;5032377;28;20448;-79
2023/02/25 00:54:24;;;;;;;18.17;3.13;;;4.30;99.90;;;;;;5033456;28;20037;-78
2023/02/25 00:56:50;;;;;;;15.32;2.92;;;4.30;99.90;;;;;;5034748;28;20143;-79
2023/02/25 00:59:16;;;;;;;22.45;3.20;;;4.30;99.90;;;;;;5031814;28;20061;-79
2023/02/25 01:01:41;;;;;;;18.60;3.22;;;4.30;99.90;;;;;;5029845;28;20493;-79
2023/02/25 01:04:08;;;;;;;16.02;3.05;;;4.30;99.90;;;;;;5033134;28;20105;-79
2023/02/25 01:06:36;;;;;;;17.92;3.08;;;4.30;99.90;;;;;;5033136;28;20041;-79
2023/02/25 01:09:04;;;;;;;17.35;3.67;;;4.40;99.90;;;;;;5032193;28;20034;-79
2023/02/25 01:11:33;;;;;;;14.25;2.85;;;4.40;99.90;;;;;;5034988;28;20038;-79
2023/02/25 01:14:03;;;;;;;15.82;3.65;;;4.40;99.90;;;;;;5024911;28;20068;-79
2023/02/25 01:16:30;;;;;;;19.58;2.90;;;4.40;99.90;;;;;;5047344;28;20037;-77
2023/02/25 01:18:58;;;;;;;16.20;2.90;;;4.40;99.90;;;;;;5011626;28;20041;-79
2023/02/25 01:21:28;;;;;;;14.25;2.90;;;4.40;99.90;;;;;;5027422;28;20095;-79
2023/02/25 01:24:10;;;;;;;20.45;2.90;;;4.40;99.90;;;;;;5017463;28;20133;-78
2023/02/25 01:26:38;;;;;;;20.08;3.45;;;4.30;99.90;;;;;;5018684;28;20041;-79
2023/02/25 01:29:12;;;;;;;19.08;3.30;;;4.30;99.90;;;;;;5031081;28;20440;-79
2023/02/25 01:31:38;;;;;;;21.20;3.33;;;4.90;99.90;;;;;;5034446;28;20511;-79
2023/02/25 01:34:07;;;;;;;17.05;2.88;;;4.30;99.90;;;;;;5034351;28;20048;-79
2023/02/25 01:36:34;;;;;;;18.45;2.55;;;4.30;99.90;;;;;;5011334;28;20064;-79
2023/02/25 01:39:01;;;;;;;21.88;3.67;;;4.30;99.90;;;;;;5031352;28;20197;-79
2023/02/25 01:41:28;;;;;;;13.32;2.72;;;4.30;99.90;;;;;;5028530;28;20088;-79
2023/02/25 01:44:16;;;;;;;12.88;3.13;;;4.30;99.90;;;;;;5011473;28;20191;-78
2023/02/25 01:46:44;;;;;;;22.13;2.97;;;4.30;99.90;;;;;;5032489;28;20036;-79
2023/02/25 01:49:40;;;;;;;19.70;2.97;;;4.30;99.90;;;;;;5029613;28;20048;-78
2023/02/25 01:52:12;;;;;;;19.65;3.00;;;4.30;99.90;;;;;;5031205;28;20054;-78
2023/02/25 01:54:38;;;;;;;25.88;3.38;;;4.30;99.90;;;;;;5016246;28;20559;-77
2023/02/25 01:57:10;;;;;;;24.63;3.47;;;4.40;99.90;;;;;;5034185;28;20061;-78
2023/02/25 01:59:37;;;;;;;19.63;2.88;;;4.40;99.90;;;;;;5026770;28;20053;-77
2023/02/25 02:02:03;;;;;;;17.85;2.83;;;4.40;99.90;;;;;;5031277;28;20037;-78
2023/02/25 02:04:33;;;;;;;16.33;2.75;;;4.40;99.90;;;;;;5032436;28;20040;-79
2023/02/25 02:06:59;;;;;;;21.60;2.53;;;4.40;99.90;;;;;;5025178;28;20042;-78
2023/02/25 02:09:27;;;;;;;20.40;3.08;;;4.50;99.90;;;;;;5034540;28;20432;-79
2023/02/25 02:11:56;;;;;;;17.23;2.95;;;4.50;99.90;;;;;;5016184;28;20363;-78
2023/02/25 02:14:27;;;;;;;16.08;2.78;;;4.50;99.90;;;;;;5026011;28;20128;-77
2023/02/25 02:17:37;;;;;;;14.98;2.53;;;4.50;99.90;;;;;;5033064;28;20559;-79
2023/02/25 02:20:12;;;;;;;18.15;2.58;;;4.50;99.90;;;;;;5022633;28;20052;-78
2023/02/25 02:22:56;;;;;;;15.73;3.28;;;4.50;99.90;;;;;;5033695;28;20375;-79
2023/02/25 02:25:42;;;;;;;21.38;3.90;;;4.60;99.90;;;;;;5029682;28;20498;-78
2023/02/25 02:28:31;;;;;;;17.05;2.90;;;4.60;99.90;;;;;;5018946;28;20053;-76
2023/02/25 02:31:23;;;;;;;18.77;2.97;;;4.60;99.90;;;;;;5029043;28;20051;-75
2023/02/25 02:34:02;;;;;;;19.65;3.63;;;4.60;99.90;;;;;;5044171;28;20037;-79
2023/02/25 02:36:50;;;;;;;20.17;3.05;;;4.60;99.90;;;;;;5021562;28;20117;-77
2023/02/25 02:39:43;;;;;;;23.25;2.90;;;4.60;99.90;;;;;;5032123;28;20540;-79
2023/02/25 02:42:26;;;;;;;21.27;3.47;;;4.70;99.90;;;;;;5033907;28;20445;-77
2023/02/25 02:45:10;;;;;;;;;;;4.60;99.90;;;;;;5030074;28;20075;-79
2023/02/25 02:47:48;;;;;;;17.40;2.95;;;4.70;99.90;;;;;;5030476;28;19964;-78
2023/02/25 02:50:38;;;;;;;21.17;2.90;;;4.70;99.90;;;;;;5032289;28;20041;-78
2023/02/25 02:53:10;;;;;;;19.23;3.08;;;4.70;99.90;;;;;;5030676;28;20033;-78
2023/02/25 02:55:42;;;;;;;18.98;3.40;;;4.70;99.90;;;;;;5033596;28;20034;-77
2023/02/25 02:58:17;;;;;;;17.13;2.97;;;4.70;99.90;;;;;;5032876;28;20041;-77
2023/02/25 03:00:47;;;;;;;21.60;3.85;;;4.70;99.90;;;;;;5027396;28;20485;-77
2023/02/25 03:03:21;;;;;;;17.73;2.70;;;4.70;99.90;;;;;;5032443;28;20037;-77
2023/02/25 03:05:51;;;;;;;21.05;3.70;;;4.70;99.90;;;;;;5032205;28;20493;-77
2023/02/25 03:08:22;;;;;;;22.00;4.00;;;4.70;99.90;;;;;;5032321;28;20098;-77
2023/02/25 03:10:47;;;;;;;18.50;2.47;;;4.70;99.90;;;;;;5031204;28;20034;-77
2023/02/25 03:13:14;;;;;;;19.88;3.10;;;4.70;99.90;;;;;;5032686;28;20037;-77
2023/02/25 03:15:41;;;;;;;16.08;3.00;;;4.70;99.90;;;;;;5031879;28;20489;-77
2023/02/25 03:18:19;;;;;;;23.42;3.95;;;4.70;99.90;;;;;;5022279;28;20037;-77
2023/02/25 03:20:48;;;;;;;21.60;3.40;;;4.70;99.90;;;;;;5016138;28;20405;-79
2023/02/25 03:23:18;;;;;;;19.58;2.78;;;4.70;99.90;;;;;;5015538;28;20052;-77
2023/02/25 03:25:49;;;;;;;22.90;3.97;;;4.70;99.90;;;;;;5015349;28;20075;-79
2023/02/25 03:28:25;;;;;;;22.33;3.50;;;4.70;99.90;;;;;;5030881;28;20052;-77
2023/02/25 03:31:02;;;;;;;21.15;3.53;;;4.70;99.90;;;;;;5030286;28;20497;-79
2023/02/25 03:33:34;;;;;;;29.95;3.13;;;4.70;99.90;;;;;;5031282;28;20033;-77
2023/02/25 03:36:05;;;;;;;19.98;3.55;;;4.60;99.90;;;;;;5029887;28;20121;-78
2023/02/25 03:38:33;;;;;;;22.58;2.97;;;4.60;99.90;;;;;;5032118;28;20505;-77
2023/02/25 03:41:01;;;;;;;25.13;3.28;;;4.60;99.90;;;;;;5029814;28;20542;-77
2023/02/25 03:43:32;;;;;;;18.48;3.08;;;4.60;99.90;;;;;;5030195;28;20045;-81
2023/02/25 03:45:58;;;;;;;19.38;3.35;;;4.50;99.90;;;;;;5014647;28;20563;-77
2023/02/25 03:48:25;;;;;;;15.45;3.30;;;4.50;99.90;;;;;;5037240;28;20041;-77
2023/02/25 03:51:01;;;;;;;21.63;3.75;;;4.50;99.90;;;;;;5015030;28;20116;-77
2023/02/25 03:53:28;;;;;;;19.15;3.67;;;4.40;99.90;;;;;;5030808;28;20041;-77
2023/02/25 03:55:56;;;;;;;18.52;3.53;;;4.40;99.90;;;;;;5031328;28;20049;-77
2023/02/25 03:58:23;;;;;;;26.90;3.72;;;4.30;99.90;;;;;;5032077;28;20095;-77
2023/02/25 04:00:55;;;;;;;22.13;3.15;;;4.30;99.90;;;;;;5010302;28;20049;-77
2023/02/25 04:03:21;;;;;;;18.30;3.22;;;4.30;99.90;;;;;;5031564;28;20044;-77
2023/02/25 04:05:47;;;;;;;19.25;3.03;;;4.20;99.90;;;;;;5031159;28;20437;-77
2023/02/25 04:08:14;;;;;;;20.85;3.92;;;4.20;99.90;;;;;;5031812;28;20049;-77
2023/02/25 04:10:42;;;;;;;17.05;2.95;;;4.20;99.90;;;;;;5031235;28;20551;-77
2023/02/25 04:13:09;;;;;;;24.35;3.78;;;4.20;99.90;;;;;;5027253;28;20033;-77
2023/02/25 04:15:36;;;;;;;22.80;3.53;;;4.20;99.90;;;;;;5031361;28;20112;-77
2023/02/25 04:18:02;;;;;;;15.57;2.88;;;4.20;99.90;;;;;;5030148;28;20045;-77
2023/02/25 04:20:28;;;;;;;19.50;3.53;;;4.20;99.90;;;;;;5027699;28;20375;-76
2023/02/25 04:22:54;;;;;;;16.20;3.20;;;4.30;99.90;;;;;;5021829;28;20053;-77
2023/02/25 04:25:21;;;;;;;19.27;3.13;;;4.30;99.90;;;;;;5031186;28;20112;-77
2023/02/25 04:27:46;;;;;;;14.50;3.00;;;4.30;99.90;;;;;;5030775;28;20116;-77
2023/02/25 04:30:13;;;;;;;19.70;2.60;;;4.30;99.90;;;;;;5022435;28;20068;-80
2023/02/25 04:32:39;;;;;;;15.77;2.50;;;4.30;99.90;;;;;;5032101;28;20037;-77
2023/02/25 04:35:08;;;;;;;12.68;2.60;;;4.30;99.90;;;;;;5030991;28;20401;-77
2023/02/25 04:37:34;;;;;;;23.00;3.20;;;4.30;99.90;;;;;;5031656;28;20111;-77
2023/02/25 04:39:59;;;;;;;22.20;3.25;;;4.30;99.90;;;;;;5031817;28;20493;-77
2023/02/25 04:42:25;;;;;;;14.98;3.20;;;4.30;99.90;;;;;;5015073;28;20096;-77
2023/02/25 04:44:51;;;;;;;17.77;3.22;;;4.30;99.90;;;;;;5014579;28;20500;-77
2023/02/25 04:47:17;;;;;;;19.60;3.38;;;4.30;99.90;;;;;;5030818;28;20049;-79
2023/02/25 04:49:43;;;;;;;21.95;3.72;;;4.40;99.90;;;;;;5014524;28;20037;-77
2023/02/25 04:52:14;;;;;;;20.73;3.45;;;4.50;99.90;;;;;;5025861;28;20045;-77
2023/02/25 04:54:40;;;;;;;18.75;3.53;;;4.30;99.90;;;;;;5022411;28;20049;-77
2023/02/25 04:57:06;;;;;;;19.35;3.42;;;4.40;99.90;;;;;;5029690;28;20084;-77
2023/02/25 04:59:32;;;;;;;15.60;2.65;;;4.40;99.90;;;;;;5028260;28;20120;-77
2023/02/25 05:01:58;;;;;;;19.17;2.75;;;4.40;99.90;;;;;;5030660;28;20124;-77
2023/02/25 05:04:23;;;;;;;19.40;2.95;;;4.40;99.90;;;;;;5030467;28;20117;-77
2023/02/25 05:06:49;;;;;;;15.98;2.70;;;4.40;99.90;;;;;;5031756;28;20041;-77
2023/02/25 05:09:15;;;;;;;11.48;2.38;;;4.40;99.90;;;;;;5030905;28;20070;-78
2023/02/25 05:11:40;;;;;;;17.27;2.72;;;4.30;99.90;;;;;;5018756;28;20040;-77
2023/02/25 05:14:06;;;;;;;14.07;2.40;;;4.30;99.90;;;;;;5031295;28;20049;-77
2023/02/25 05:16:31;;;;;;;15.82;2.72;;;4.30;99.90;;;;;;5027248;28;20034;-77
2023/02/25 05:18:57;;;;;;;10.52;2.00;;;4.30;99.90;;;;;;5030548;28;20073;-77
2023/02/25 05:21:25;;;;;;;13.00;2.65;;;4.30;99.90;;;;;;5030164;28;20380;-77
2023/02/25 05:23:52;;;;;;;12.38;2.10;;;4.30;99.90;;;;;;5028888;28;20037;-77
2023/02/25 05:26:20;;;;;;;11.40;1.88;;;4.30;99.90;;;;;;5029364;28;20057;-80
2023/02/25 05:28:51;;;;;;;14.65;1.98;;;4.30;99.90;;;;;;5030095;28;20042;-80
2023/02/25 05:31:17;;;;;;;13.02;2.25;;;4.30;99.90;;;;;;5045748;28;20045;-77
2023/02/25 05:33:43;;;;;;;9.23;2.20;;;4.30;99.90;;;;;;5011978;28;20056;-77
2023/02/25 05:36:11;;;;;;;12.18;2.00;;;4.40;99.90;;;;;;5029128;28;20103;-79
2023/02/25 05:38:37;;;;;;;10.02;1.40;;;4.40;99.90;;;;;;5029618;28;20063;-77
2023/02/25 05:41:07;;;;;;;8.10;1.77;;;4.40;99.90;;;;;;5013322;28;20549;-77
2023/02/25 05:43:33;;;;;;;7.40;1.42;;;4.40;99.90;;;;;;5013202;28;20034;-76
2023/02/25 05:46:01;;;;;;;11.25;1.77;;;4.40;99.90;;;;;;5028647;28;20037;-76
2023/02/25 05:48:28;;;;;;;9.52;1.58;;;4.50;99.90;;;;;;5012769;28;20136;-78
2023/02/25 05:51:07;;;;;;;9.43;1.65;;;4.40;99.90;;;;;;5029828;28;20452;-77
2023/02/25 05:53:32;;;;;;;11.35;1.60;;;4.40;99.90;;;;;;5018718;28;20041;-79
2023/02/25 05:55:58;;;;;;;6.85;1.52;;;4.40;99.90;;;;;;5027451;28;20056;-76
2023/02/25 05:58:24;;;;;;;8.95;1.85;;;4.40;99.90;;;;;;5028518;28;20406;-76
2023/02/25 06:00:50;;;;;;;7.38;1.30;;;4.40;99.90;;;;;;5027326;28;20048;-76
2023/02/25 06:03:16;;;;;;;7.53;1.30;;;4.40;99.90;;;;;;5013104;28;20044;-76
2023/02/25 06:05:42;;;;;;;6.57;1.17;;;4.60;99.90;;;;;;5031029;28;20167;-76
2023/02/25 06:08:11;;;;;;;5.68;1.35;;;4.30;99.90;;;;;;5030291;28;20432;-77
2023/02/25 06:10:38;;;;;;;8.20;1.40;;;4.30;99.90;;;;;;5029389;28;20506;-76
2023/02/25 06:13:05;;;;;;;6.65;1.30;;;4.20;99.90;;;;;;5029201;28;20041;-77
2023/02/25 06:15:30;;;;;;;6.57;1.80;;;4.30;99.90;;;;;;5012020;28;20072;-77
2023/02/25 06:17:56;;;;;;;7.35;1.33;;;4.40;99.90;;;;;;5012984;28;20127;-83
2023/02/25 06:20:24;;;;;;;6.65;1.20;;;4.10;99.90;;;;;;5024506;28;20497;-77
2023/02/25 06:22:50;;;;;;;4.38;1.63;;;4.10;99.90;;;;;;5022012;28;20038;-78
2023/02/25 06:25:16;;;;;;;5.57;1.33;;;4.10;99.90;;;;;;5027350;28;20041;-78
2023/02/25 06:27:42;;;;;;;7.38;1.35;;;4.10;99.90;;;;;;5028695;28;20084;-77
2023/02/25 06:30:09;;;;;;;5.97;1.35;;;4.10;99.90;;;;;;5032641;28;20033;-77
2023/02/25 06:32:34;;;;;;;6.53;1.55;;;4.10;99.90;;;;;;5033213;28;20042;-77
2023/02/25 06:35:00;;;;;;;9.00;1.50;;;4.10;99.90;;;;;;5032512;28;20041;-77
2023/02/25 06:37:26;;;;;;;9.77;1.73;;;4.00;99.90;;;;;;5032051;28;20037;-78
2023/02/25 06:39:52;;;;;;;7.82;1.52;;;4.00;99.90;;;;;;5033462;28;20107;-80
2023/02/25 06:42:18;;;;;;;8.55;1.60;;;4.00;99.90;;;;;;5016501;28;20034;-78
2023/02/25 06:44:43;;;;;;;9.75;2.17;;;4.00;99.90;;;;;;5034815;28;20103;-77
2023/02/25 06:47:09;;;;;;;9.40;1.40;;;4.10;99.90;;;;;;5016207;28;20064;-80
2023/02/25 06:49:35;;;;;;;7.78;1.45;;;4.00;99.90;;;;;;5019018;28;20391;-82
2023/02/25 06:52:00;;;;;;;7.07;1.70;;;4.00;99.90;;;;;;5028903;28;20034;-81
2023/02/25 06:54:26;;;;;;;8.90;1.65;;;4.00;99.90;;;;;;5033612;28;20041;-81
2023/02/25 06:56:53;;;;;;;8.80;1.65;;;4.00;99.90;;;;;;5025708;28;20030;-82
2023/02/25 06:59:19;;;;;;;8.75;1.42;;;4.10;99.90;;;;;;5016541;28;20033;-80
2023/02/25 07:01:45;;;;;;;7.50;1.92;;;4.10;99.90;;;;;;5031639;28;20045;-81
2023/02/25 07:04:16;;;;;;;9.90;2.45;;;4.10;99.90;;;;;;5026248;28;20398;-80
2023/02/25 07:06:41;;;;;;;11.25;1.80;;;5.10;99.90;;;;;;5023630;28;20049;-80
2023/02/25 07:09:07;;;;;;;10.45;1.77;;;4.20;99.90;;;;;;5022443;28;20049;-80
2023/02/25 07:11:34;;;;;;;10.80;1.55;;;4.20;99.90;;;;;;5032992;28;20034;-82
2023/02/25 07:14:05;;;;;;;10.93;2.10;;;4.20;99.90;;;;;;5017356;28;20037;-78
2023/02/25 07:16:31;;;;;;;8.43;1.80;;;4.20;99.90;;;;;;5028253;28;20045;-77
2023/02/25 07:18:58;;;;;;;9.10;1.85;;;4.20;99.90;;;;;;5031630;28;20140;-80
2023/02/25 07:21:28;;;;;;;11.15;1.70;;;4.30;99.90;;;;;;5029706;28;20052;-78
2023/02/25 07:23:54;;;;;;;6.28;1.40;;;4.30;99.90;;;;;;5031861;28;20072;-79
2023/02/25 07:26:20;;;;;;;13.55;1.83;;;4.30;99.90;;;;;;5023246;28;20051;-80
2023/02/25 07:28:47;;;;;;;8.63;1.33;;;4.40;99.90;;;;;;5025054;28;20050;-80
2023/02/25 07:31:20;;;;;;;6.03;1.35;;;4.40;99.90;;;;;;5018086;28;20051;-79
2023/02/25 07:33:46;;;;;;;6.78;1.60;;;4.40;99.90;;;;;;5024875;28;20052;-80
2023/02/25 07:36:13;;;;;;;9.50;1.70;;;4.40;99.90;;;;;;5032998;28;20041;-78
2023/02/25 07:38:39;;;;;;;8.38;1.30;;;4.40;99.90;;;;;;5019246;28;20116;-77
2023/02/25 07:41:10;;;;;;;3.65;1.05;;;4.40;99.90;;;;;;5008745;28;20068;-77
2023/02/25 07:43:36;;;;;;;4.73;1.10;;;4.50;99.90;;;;;;5029209;28;20037;-77
2023/02/25 07:46:02;;;;;;;4.35;1.10;;;4.50;99.90;;;;;;5004472;28;20103;-77
2023/02/25 07:48:28;;;;;;;5.72;1.33;;;4.60;99.90;;;;;;5012791;28;20033;-78
2023/02/25 07:50:54;;;;;;;3.78;1.15;;;4.50;99.90;;;;;;5026784;28;20516;-78
2023/02/25 07:53:21;;;;;;;3.55;0.90;;;4.50;99.90;;;;;;5028343;28;20095;-78
2023/02/25 07:55:48;;;;;;;2.67;0.93;;;4.50;99.90;;;;;;5028802;28;20116;-77
2023/02/25 07:58:14;;;;;;;4.88;0.98;;;4.60;99.90;;;;;;5023017;28;20455;-78
2023/02/25 08:00:40;;;;;;;6.25;1.35;;;4.90;99.90;;;;;;5021729;28;20490;-78
2023/02/25 08:03:07;;;;;;;2.88;0.85;;;4.60;99.90;;;;;;5031809;28;20116;-77
2023/02/25 08:05:33;;;;;;;5.47;0.82;;;4.60;99.90;;;;;;5026206;28;20112;-79
2023/02/25 08:07:59;;;;;;;2.92;1.00;;;4.60;99.90;;;;;;5023006;28;20046;-77
2023/02/25 08:10:25;;;;;;;4.03;0.85;;;4.70;99.90;;;;;;5031951;28;20041;-77
2023/02/25 08:12:50;;;;;;;2.30;0.90;;;4.70;99.90;;;;;;5025590;28;20080;-80
2023/02/25 08:15:18;;;;;;;3.75;0.73;;;4.70;99.90;;;;;;5014519;28;20120;-78
2023/02/25 08:17:44;;;;;;;3.13;0.63;;;4.70;99.90;;;;;;5030596;28;20468;-77
2023/02/25 08:20:10;;;;;;;2.67;0.80;;;4.70;99.90;;;;;;5026003;28;20433;-78
2023/02/25 08:22:36;;;;;;;3.22;0.93;;;4.70;99.90;;;;;;5025540;28;20065;-78
2023/02/25 08:25:03;;;;;;;4.15;0.82;;;4.70;99.90;;;;;;5023929;28;20493;-78
2023/02/25 08:27:29;;;;;;;2.75;0.90;;;4.70;99.90;;;;;;5011287;28;20056;-79
2023/02/25 08:29:56;;;;;;;2.63;0.80;;;4.70;99.90;;;;;;5030538;28;20077;-78
2023/02/25 08:32:26;;;;;;;15.88;1.52;;;4.80;99.90;;;;;;5031222;28;20535;-78
2023/02/25 08:34:55;;;;;;;10.20;1.35;;;5.60;99.90;;;;;;5029365;28;20056;-78
2023/02/25 08:37:22;;;;;;;4.70;0.82;;;4.80;99.90;;;;;;5012739;28;20041;-77
2023/02/25 08:39:48;;;;;;;7.25;0.90;;;4.80;99.90;;;;;;5020917;28;20124;-78
2023/02/25 08:42:17;;;;;;;6.50;1.67;;;4.90;99.90;;;;;;5017198;28;20542;-79
2023/02/25 08:44:44;;;;;;;6.32;1.00;;;5.40;99.90;;;;;;5020303;28;20042;-78
2023/02/25 08:47:09;;;;;;;4.72;1.00;;;4.90;99.90;;;;;;5002628;28;20498;-80
2023/02/25 08:49:35;;;;;;;8.40;1.27;;;4.90;99.90;;;;;;5019946;28;20052;-78
2023/02/25 08:52:00;;;;;;;13.93;3.20;;;4.80;99.90;;;;;;5022322;28;20041;-78
2023/02/25 08:54:26;;;;;;;10.65;2.42;;;4.90;99.90;;;;;;5036170;22;20037;-63
2023/02/25 08:56:54;;;;;;;11.77;2.50;;;4.80;99.90;;;;;;5009914;28;20132;-63
2023/02/25 08:59:20;;;;;;;12.73;2.50;;;4.80;99.90;;;;;;5012286;28;20038;-63
2023/02/25 09:01:47;;;;;;;8.10;2.10;;;4.80;99.90;;;;;;5010391;28;20136;-63
2023/02/25 09:04:15;;;;;;;10.35;2.15;;;4.80;99.90;;;;;;5028063;28;20041;-63
2023/02/25 09:06:41;;;;;;;10.63;3.08;;;4.80;99.90;;;;;;5011461;28;20045;-63
2023/02/25 09:09:07;;;;;;;8.45;2.35;;;4.80;99.90;;;;;;5019429;28;20049;-63
2023/02/25 09:11:33;;;;;;;13.73;2.08;;;4.80;99.90;;;;;;5013529;28;20044;-63
2023/02/25 09:13:59;;;;;;;8.43;1.70;;;4.90;99.90;;;;;;5001322;28;20038;-65
2023/02/25 09:16:28;;;;;;;9.90;1.48;;;4.90;99.90;;;;;;5003751;28;20041;-63
2023/02/25 09:18:53;;;;;;;12.40;2.63;;;4.80;99.90;;;;;;5005902;28;20046;-63
2023/02/25 09:21:20;;;;;;;9.65;1.70;;;4.90;99.90;;;;;;5016685;28;20515;-63
2023/02/25 09:23:46;;;;;;;8.93;1.80;;;4.80;99.90;;;;;;5006740;28;20442;-63
2023/02/25 09:26:13;;;;;;;13.20;2.63;;;4.80;99.90;;;;;;5013140;28;20041;-63
2023/02/25 09:28:38;;;;;;;9.20;1.70;;;4.80;99.90;;;;;;5018748;28;20411;-63
2023/02/25 09:31:04;;;;;;;9.50;2.40;;;4.90;99.90;;;;;;5012968;28;20038;-63
2023/02/25 09:33:31;;;;;;;6.82;1.83;;;4.90;99.90;;;;;;5023146;28;20068;-63
2023/02/25 09:36:14;;;;;;;8.73;2.05;;;5.00;99.90;;;;;;5001488;28;20423;-63
2023/02/25 09:38:41;;;;;;;10.27;1.83;;;5.00;99.90;;;;;;5001848;28;20038;-63
2023/02/25 09:41:54;;;;;;;11.32;1.80;;;5.10;99.90;;;;;;5010939;28;20037;-63
2023/02/25 09:44:25;;;;;;;9.07;1.83;;;5.10;99.90;;;;;;5002878;28;20083;-63
2023/02/25 09:46:54;;;;;;;10.57;1.90;;;5.20;99.90;;;;;;5016032;28;20117;-63
2023/02/25 09:49:38;;;;;;;11.82;1.80;;;5.20;99.90;;;;;;5012928;28;20365;-63
2023/02/25 09:52:18;;;;;;;9.10;1.67;;;5.20;99.90;;;;;;5009068;28;20091;-63
2023/02/25 09:55:04;;;;;;;11.18;1.90;;;5.20;99.90;;;;;;5015911;28;20083;-63
2023/02/25 09:57:35;;;;;;;9.18;1.88;;;5.20;99.90;;;;;;5016574;28;20034;-63
2023/02/25 10:00:09;;;;;;;9.57;1.65;;;5.20;99.90;;;;;;5022952;28;20041;-63
2023/02/25 10:02:46;;;;;;;9.02;1.73;;;5.20;99.90;;;;;;5014809;28;20053;-62
2023/02/25 10:05:32;;;;;;;9.90;2.00;;;5.20;99.90;;;;;;5011160;28;20160;-63
2023/02/25 10:08:09;;;;;;;11.32;2.03;;;5.20;99.90;;;;;;5016962;28;20562;-63
2023/02/25 10:10:51;;;;;;;9.70;1.73;;;5.10;99.90;;;;;;5024064;28;20454;-62
2023/02/25 10:13:36;;;;;;;10.27;2.10;;;5.00;99.90;;;;;;5016520;28;20041;-62
2023/02/25 10:16:20;;;;;;;6.10;1.70;;;4.90;99.90;;;;;;5012066;28;20066;-62
2023/02/25 10:18:53;;;;;;;9.85;1.55;;;4.90;99.90;;;;;;5011953;28;20047;-63
2023/02/25 10:22:15;;;;;;;10.88;2.03;;;4.90;99.90;;;;;;5021522;28;20120;-62
2023/02/25 10:24:47;;;;;;;10.68;1.77;;;5.00;99.90;;;;;;4965939;28;20049;-62
2023/02/25 10:27:19;;;;;;;13.02;2.47;;;5.00;99.90;;;;;;5019563;28;20133;-62
2023/02/25 10:29:51;;;;;;;11.80;2.10;;;5.00;99.90;;;;;;5011480;28;20092;-63
2023/02/25 10:32:30;;;;;;;8.23;1.45;;;5.00;99.90;;;;;;4999188;28;20069;-62
2023/02/25 10:34:59;;;;;;;8.27;2.42;;;5.00;99.90;;;;;;5006638;28;20041;-62
2023/02/25 10:37:36;;;;;;;12.13;2.10;;;5.00;99.90;;;;;;5006427;28;20423;-62
2023/02/25 10:40:09;;;;;;;11.02;2.05;;;5.00;99.90;;;;;;5009567;28;20038;-62
2023/02/25 10:42:36;;;;;;;10.70;1.95;;;5.10;99.90;;;;;;5002763;28;20050;-62
2023/02/25 10:45:15;;;;;;;11.55;1.75;;;5.10;99.90;;;;;;4999530;28;20073;-63
2023/02/25 10:47:46;;;;;;;7.10;1.50;;;5.20;99.90;;;;;;5000155;28;20038;-62
2023/02/25 10:50:19;;;;;;;8.35;1.70;;;5.30;99.90;;;;;;5007258;28;20092;-62
2023/02/25 10:52:53;;;;;;;11.55;2.10;;;5.30;99.90;;;;;;5004788;28;20451;-63
2023/02/25 10:55:39;;;;;;;9.02;1.50;;;5.40;99.90;;;;;;5003837;28;20380;-62
2023/02/25 10:58:05;;;;;;;10.95;1.77;;;5.50;99.90;;;;;;5001519;28;20041;-63
2023/02/25 11:00:35;;;;;;;11.50;2.10;;;5.60;99.90;;;;;;5016894;28;20392;-63
2023/02/25 11:03:03;;;;;;;11.68;2.00;;;5.70;99.90;;;;;;5010286;28;20040;-63
2023/02/25 11:05:39;;;;;;;10.45;2.33;;;5.60;99.90;;;;;;5014373;28;20038;-63
2023/02/25 11:08:24;;;;;;;7.43;1.98;;;5.60;99.90;;;;;;5002282;28;20507;-63
2023/02/25 11:11:02;;;;;;;10.75;2.05;;;5.50;99.90;;;;;;4981054;28;20121;-63
2023/02/25 11:13:30;;;;;;;13.70;2.03;;;5.60;99.90;;;;;;4999286;28;20044;-63
2023/02/25 11:16:01;;;;;;;12.25;2.63;;;5.80;99.90;;;;;;5002074;28;20038;-63
2023/02/25 11:18:29;;;;;;;6.07;1.88;;;6.00;99.90;;;;;;5007351;28;20080;-63
2023/02/25 11:20:59;;;;;;;8.65;1.75;;;6.20;99.90;;;;;;4999055;28;20050;-63
2023/02/25 11:23:35;;;;;;;5.78;1.65;;;6.40;99.90;;;;;;5007901;28;20120;-63
2023/02/25 11:26:02;;;;;;;6.75;1.45;;;6.50;99.90;;;;;;5001584;28;20124;-63
2023/02/25 11:28:30;;;;;;;3.85;1.38;;;6.60;99.90;;;;;;5013516;28;20045;-62
2023/02/25 11:31:06;;;;;;;4.72;1.27;;;6.70;99.90;;;;;;5017956;28;20053;-63
2023/02/25 11:33:35;;;;;;;4.82;0.90;;;6.80;99.90;;;;;;5008944;28;20033;-63
2023/02/25 11:36:02;;;;;;;3.30;1.10;;;6.90;99.90;;;;;;5010913;28;20070;-62
2023/02/25 11:38:36;;;;;;;3.63;1.10;;;7.00;99.90;;;;;;5016956;28;20037;-62
2023/02/25 11:41:02;;;;;;;3.25;1.00;;;7.00;99.90;;;;;;5021342;28;20040;-63
2023/02/25 11:43:54;;;;;;;6.15;1.23;;;7.00;99.90;;;;;;5013037;28;20064;-62
2023/02/25 11:46:23;;;;;;;9.98;1.30;;;7.10;99.90;;;;;;5004271;28;20068;-62
2023/02/25 11:49:00;;;;;;;4.30;1.30;;;7.20;99.90;;;;;;5022292;28;20392;-63
2023/02/25 11:51:58;;;;;;;6.38;1.30;;;7.20;99.90;;;;;;5010727;28;20168;-63
2023/02/25 11:54:30;;;;;;;6.38;1.48;;;7.20;99.90;;;;;;4999805;28;20038;-63
2023/02/25 11:57:01;;;;;;;4.35;1.27;;;7.20;99.90;;;;;;4996346;28;20447;-63
2023/02/25 11:59:59;;;;;;;6.20;1.30;;;7.20;99.90;;;;;;4994543;28;20519;-62
2023/02/25 12:02:27;;;;;;;7.32;1.20;;;7.30;99.90;;;;;;4998841;28;20448;-63
2023/02/25 12:05:34;;;;;;;6.53;1.30;;;7.30;99.90;;;;;;4994874;28;20038;-63
2023/02/25 12:08:05;;;;;;;4.60;1.20;;;7.40;99.90;;;;;;5000507;28;20087;-63
2023/02/25 12:10:49;;;;;;;6.80;1.10;;;7.50;99.90;;;;;;4997412;28;20042;-62
2023/02/25 12:13:40;;;;;;;4.25;1.30;;;7.50;99.90;;;;;;5002319;28;20045;-63
2023/02/25 12:16:17;;;;;;;5.40;1.42;;;7.60;99.90;;;;;;5000211;28;20030;-63
2023/02/25 12:18:52;;;;;;;5.25;1.30;;;7.60;99.90;;;;;;4998194;28;20038;-62
2023/02/25 12:21:48;;;;;;;4.35;1.15;;;7.70;99.90;;;;;;5010660;28;20053;-62
2023/02/25 12:24:25;;;;;;;3.85;1.10;;;7.70;99.90;;;;;;5018925;28;20061;-62
2023/02/25 12:27:28;;;;;;;5.93;1.00;;;7.70;99.90;;;;;;5004341;28;20065;-62
2023/02/25 12:30:07;;;;;;;5.10;1.33;;;7.70;99.90;;;;;;5020683;28;20068;-62
2023/02/25 12:32:48;;;;;;;6.60;1.40;;;7.70;99.90;;;;;;5015081;28;20074;-62
2023/02/25 12:35:38;;;;;;;5.32;1.10;;;7.70;99.90;;;;;;5013936;28;20080;-62
2023/02/25 12:38:32;;;;;;;3.78;1.20;;;7.60;99.90;;;;;;5003602;28;20042;-62
2023/02/25 12:41:31;;;;;;;6.75;1.38;;;7.60;99.90;;;;;;5014854;28;20518;-62
2023/02/25 12:44:15;;;;;;;10.18;2.47;;;7.70;99.90;;;;;;5013625;28;20073;-62
2023/02/25 12:47:09;;;;;;;6.93;1.42;;;7.70;99.90;;;;;;5018229;28;20487;-62
2023/02/25 12:49:58;;;;;;;5.78;1.42;;;7.70;99.90;;;;;;4997248;28;20088;-62
2023/02/25 12:52:34;;;;;;;4.32;1.20;;;7.70;99.90;;;;;;4996887;28;20038;-62
2023/02/25 12:55:21;;;;;;;6.00;1.50;;;7.70;99.90;;;;;;4996502;28;20038;-62
2023/02/25 12:58:16;;;;;;;5.97;2.03;;;7.70;99.90;;;;;;4994997;28;20381;-62
2023/02/25 13:01:05;;;;;;;5.45;1.52;;;7.60;99.90;;;;;;4979237;28;20070;-62
2023/02/25 13:03:37;;;;;;;6.10;1.30;;;7.60;99.90;;;;;;4992237;28;20042;-62
2023/02/25 13:06:27;;;;;;;7.07;1.37;;;7.50;99.90;;;;;;4993366;28;20038;-62
2023/02/25 13:09:03;;;;;;;4.93;1.23;;;7.50;99.90;;;;;;4999476;28;20038;-62
2023/02/25 13:11:53;;;;;;;5.65;1.38;;;7.50;99.90;;;;;;4994701;28;20039;-62